createdAt,value
2024-04-26T00:00:19.383Z,25.68
2024-04-26T00:00:49.459Z,25.66
2024-04-26T00:01:19.716Z,25.67
2024-04-26T00:01:49.617Z,25.64
2024-04-26T00:02:19.705Z,25.60
2024-04-26T00:02:49.842Z,25.64
2024-04-26T00:03:19.873Z,25.60
2024-04-26T00:03:49.881Z,25.60
2024-04-26T00:04:19.965Z,25.57
2024-04-26T00:04:50.070Z,25.57
2024-04-26T00:05:20.135Z,25.57
2024-04-26T00:05:50.341Z,25.57
2024-04-26T00:06:20.371Z,25.58
2024-04-26T00:06:50.399Z,25.61
2024-04-26T00:07:20.539Z,25.57
2024-04-26T00:07:50.494Z,25.57
2024-04-26T00:08:20.662Z,25.57
2024-04-26T00:08:50.662Z,25.58
2024-04-26T00:09:20.689Z,25.57
2024-04-26T00:09:50.729Z,25.58
2024-04-26T00:10:20.773Z,25.60
2024-04-26T00:10:50.877Z,25.54
2024-04-26T00:11:21.003Z,25.58
2024-04-26T00:11:51.045Z,25.63
2024-04-26T00:12:21.076Z,25.60
2024-04-26T00:12:51.044Z,25.64
2024-04-26T00:13:21.089Z,25.58
2024-04-26T00:13:51.132Z,25.63
2024-04-26T00:14:21.242Z,25.66
2024-04-26T00:14:51.183Z,25.68
2024-04-26T00:15:21.224Z,25.66
2024-04-26T00:15:51.293Z,25.71
2024-04-26T00:16:21.380Z,25.73
2024-04-26T00:16:51.553Z,25.75
2024-04-26T00:17:21.528Z,25.74
2024-04-26T00:17:51.511Z,25.77
2024-04-26T00:18:21.578Z,25.81
2024-04-26T00:18:51.546Z,25.78
2024-04-26T00:19:21.629Z,25.74
2024-04-26T00:19:51.710Z,25.77
2024-04-26T00:20:21.837Z,25.77
2024-04-26T00:20:51.830Z,25.73
2024-04-26T00:21:21.894Z,25.77
2024-04-26T00:21:51.970Z,25.77
2024-04-26T00:22:22.043Z,25.71
2024-04-26T00:22:52.133Z,25.75
2024-04-26T00:23:22.250Z,25.77
2024-04-26T00:23:52.477Z,25.78
2024-04-26T00:24:22.401Z,25.80
2024-04-26T00:24:52.479Z,25.80
2024-04-26T00:25:22.583Z,25.83
2024-04-26T00:25:52.667Z,25.80
2024-04-26T00:26:22.789Z,25.81
2024-04-26T00:26:53.012Z,25.80
2024-04-26T00:27:22.933Z,25.81
2024-04-26T00:27:52.904Z,25.75
2024-04-26T00:28:22.975Z,25.77
2024-04-26T00:28:53.056Z,25.75
2024-04-26T00:29:23.222Z,25.77
2024-04-26T00:29:53.309Z,25.74
2024-04-26T00:30:23.289Z,25.74
2024-04-26T00:30:53.386Z,25.77
2024-04-26T00:31:23.466Z,25.74
2024-04-26T00:31:53.575Z,25.71
2024-04-26T00:32:23.728Z,25.73
2024-04-26T00:32:53.887Z,25.71
2024-04-26T00:33:23.839Z,25.68
2024-04-26T00:33:53.936Z,25.67
2024-04-26T00:34:23.966Z,25.68
2024-04-26T00:34:54.030Z,25.67
2024-04-26T00:35:24.120Z,25.68
2024-04-26T00:35:54.254Z,25.66
2024-04-26T00:36:24.225Z,25.64
2024-04-26T00:36:54.304Z,25.64
2024-04-26T00:37:24.371Z,25.60
2024-04-26T00:37:54.452Z,25.60
2024-04-26T00:38:24.540Z,25.58
2024-04-26T00:38:54.731Z,25.58
2024-04-26T00:39:24.773Z,25.57
2024-04-26T00:39:54.854Z,25.51
2024-04-26T00:40:24.944Z,25.53
2024-04-26T00:40:55.026Z,25.53
2024-04-26T00:41:25.201Z,25.53
2024-04-26T00:41:55.197Z,25.51
2024-04-26T00:42:25.298Z,25.50
2024-04-26T00:42:55.369Z,25.47
2024-04-26T00:43:25.450Z,25.50
2024-04-26T00:43:55.535Z,25.50
2024-04-26T00:44:25.680Z,25.44
2024-04-26T00:44:55.719Z,25.50
2024-04-26T00:45:25.694Z,25.51
2024-04-26T00:45:55.758Z,25.49
2024-04-26T00:46:25.834Z,25.50
2024-04-26T00:46:55.907Z,25.51
2024-04-26T00:47:26.089Z,25.46
2024-04-26T00:47:56.145Z,25.50
2024-04-26T00:48:26.318Z,25.51
2024-04-26T00:48:56.356Z,25.53
2024-04-26T00:49:26.286Z,25.56
2024-04-26T00:49:56.371Z,25.56
2024-04-26T00:50:26.475Z,25.57
2024-04-26T00:50:56.518Z,25.61
2024-04-26T00:51:26.471Z,25.67
2024-04-26T00:51:56.558Z,25.66
2024-04-26T00:52:26.654Z,25.66
2024-04-26T00:52:56.726Z,25.64
2024-04-26T00:53:26.835Z,25.67
2024-04-26T00:53:57.076Z,25.63
2024-04-26T00:54:26.958Z,25.68
2024-04-26T00:54:57.042Z,25.70
2024-04-26T00:55:27.127Z,25.74
2024-04-26T00:55:57.193Z,25.73
2024-04-26T00:56:27.338Z,25.71
2024-04-26T00:56:57.332Z,25.71
2024-04-26T00:57:27.358Z,25.70
2024-04-26T00:57:57.453Z,25.68
2024-04-26T00:58:27.537Z,25.68
2024-04-26T00:58:57.610Z,25.67
2024-04-26T00:59:27.779Z,25.67
2024-04-26T00:59:57.791Z,25.70
2024-04-26T01:00:27.767Z,25.70
2024-04-26T01:00:57.873Z,25.74
2024-04-26T01:01:27.954Z,25.73
2024-04-26T01:01:58.102Z,25.73
2024-04-26T01:02:28.191Z,25.74
2024-04-26T01:02:58.169Z,25.73
2024-04-26T01:03:28.135Z,25.70
2024-04-26T01:03:58.241Z,25.71
2024-04-26T01:04:28.340Z,25.68
2024-04-26T01:04:58.453Z,25.71
2024-04-26T01:05:28.435Z,25.68
2024-04-26T01:05:58.698Z,25.70
2024-04-26T01:06:28.551Z,25.70
2024-04-26T01:06:58.626Z,25.68
2024-04-26T01:07:28.615Z,25.68
2024-04-26T01:07:58.680Z,25.68
2024-04-26T01:08:28.708Z,25.68
2024-04-26T01:08:58.872Z,25.68
2024-04-26T01:09:28.857Z,25.66
2024-04-26T01:09:58.902Z,25.68
2024-04-26T01:10:28.958Z,25.64
2024-04-26T01:10:59.017Z,25.64
2024-04-26T01:11:29.366Z,25.66
2024-04-26T01:11:59.136Z,25.64
2024-04-26T01:12:29.173Z,25.64
2024-04-26T01:12:59.208Z,25.64
2024-04-26T01:13:29.251Z,25.61
2024-04-26T01:13:59.304Z,25.58
2024-04-26T01:14:29.421Z,25.53
2024-04-26T01:14:59.486Z,25.51
2024-04-26T01:15:29.507Z,25.49
2024-04-26T01:15:59.561Z,25.47
2024-04-26T01:16:29.552Z,25.47
2024-04-26T01:16:59.642Z,25.49
2024-04-26T01:17:29.936Z,25.46
2024-04-26T01:17:59.843Z,25.47
2024-04-26T01:18:29.916Z,25.47
2024-04-26T01:19:00.183Z,25.41
2024-04-26T01:19:29.792Z,25.37
2024-04-26T01:19:59.884Z,25.41
2024-04-26T01:20:29.996Z,25.41
2024-04-26T01:21:00.158Z,25.43
2024-04-26T01:21:30.126Z,25.43
2024-04-26T01:22:00.212Z,25.46
2024-04-26T01:22:30.295Z,25.46
2024-04-26T01:23:00.373Z,25.49
2024-04-26T01:23:30.455Z,25.43
2024-04-26T01:24:00.533Z,25.40
2024-04-26T01:24:30.520Z,25.36
2024-04-26T01:25:00.670Z,25.40
2024-04-26T01:25:30.643Z,25.40
2024-04-26T01:26:00.855Z,25.40
2024-04-26T01:26:30.862Z,25.41
2024-04-26T01:27:30.865Z,25.47
2024-04-26T01:28:01.024Z,25.47
2024-04-26T01:28:30.977Z,25.46
2024-04-26T01:29:01.058Z,25.49
2024-04-26T01:29:31.164Z,25.51
2024-04-26T01:30:01.348Z,25.56
2024-04-26T01:30:31.339Z,25.57
2024-04-26T01:31:01.420Z,25.56
2024-04-26T01:31:31.497Z,25.53
2024-04-26T01:32:01.613Z,25.58
2024-04-26T01:32:31.708Z,25.60
2024-04-26T01:33:01.653Z,25.64
2024-04-26T01:33:31.733Z,25.67
2024-04-26T01:34:01.644Z,25.64
2024-04-26T01:34:31.729Z,25.61
2024-04-26T01:35:01.823Z,25.64
2024-04-26T01:35:31.930Z,25.67
2024-04-26T01:36:01.962Z,25.68
2024-04-26T01:36:31.945Z,25.70
2024-04-26T01:37:01.999Z,25.71
2024-04-26T01:37:32.085Z,25.70
2024-04-26T01:38:02.177Z,25.75
2024-04-26T01:38:32.254Z,25.73
2024-04-26T01:39:02.368Z,25.74
2024-04-26T01:39:32.349Z,25.80
2024-04-26T01:40:02.486Z,25.81
2024-04-26T01:40:32.432Z,25.78
2024-04-26T01:41:02.513Z,25.75
2024-04-26T01:41:32.631Z,25.75
2024-04-26T01:42:02.810Z,25.75
2024-04-26T01:42:32.780Z,25.75
2024-04-26T01:43:02.853Z,25.75
2024-04-26T01:43:32.942Z,25.71
2024-04-26T01:44:03.019Z,25.68
2024-04-26T01:44:33.149Z,25.71
2024-04-26T01:45:03.233Z,25.73
2024-04-26T01:45:33.236Z,25.70
2024-04-26T01:46:03.326Z,25.68
2024-04-26T01:46:33.414Z,25.68
2024-04-26T01:47:03.620Z,25.64
2024-04-26T01:47:33.720Z,25.68
2024-04-26T01:48:03.700Z,25.67
2024-04-26T01:48:33.900Z,25.68
2024-04-26T01:49:03.744Z,25.68
2024-04-26T01:49:33.814Z,25.70
2024-04-26T01:50:03.914Z,25.67
2024-04-26T01:50:33.991Z,25.66
2024-04-26T01:51:04.296Z,25.67
2024-04-26T01:51:34.070Z,25.66
2024-04-26T01:52:04.153Z,25.63
2024-04-26T01:52:34.219Z,25.63
2024-04-26T01:53:04.313Z,25.63
2024-04-26T01:53:34.481Z,25.61
2024-04-26T01:54:04.505Z,25.60
2024-04-26T01:54:34.503Z,25.56
2024-04-26T01:55:04.594Z,25.54
2024-04-26T01:55:34.679Z,25.47
2024-04-26T01:56:04.742Z,25.43
2024-04-26T01:56:34.875Z,25.41
2024-04-26T01:57:04.893Z,25.43
2024-04-26T01:57:34.878Z,25.41
2024-04-26T01:58:04.972Z,25.39
2024-04-26T01:58:35.061Z,25.41
2024-04-26T01:59:05.136Z,25.39
2024-04-26T01:59:35.232Z,25.37
2024-04-26T02:00:05.452Z,25.34
2024-04-26T02:00:35.325Z,25.36
2024-04-26T02:01:05.323Z,25.33
2024-04-26T02:01:35.291Z,25.37
2024-04-26T02:02:05.484Z,25.43
2024-04-26T02:02:35.599Z,25.40
2024-04-26T02:03:05.649Z,25.43
2024-04-26T02:03:35.610Z,25.47
2024-04-26T02:04:05.727Z,25.43
2024-04-26T02:04:35.772Z,25.49
2024-04-26T02:05:05.747Z,25.47
2024-04-26T02:05:35.846Z,25.51
2024-04-26T02:06:05.944Z,25.49
2024-04-26T02:06:35.939Z,25.49
2024-04-26T02:07:05.958Z,25.56
2024-04-26T02:07:36.000Z,25.57
2024-04-26T02:08:06.065Z,25.54
2024-04-26T02:08:36.114Z,25.58
2024-04-26T02:09:06.235Z,25.61
2024-04-26T02:09:36.190Z,25.60
2024-04-26T02:10:06.243Z,25.58
2024-04-26T02:10:36.270Z,25.57
2024-04-26T02:11:06.353Z,25.58
2024-04-26T02:11:36.547Z,25.58
2024-04-26T02:12:06.566Z,25.61
2024-04-26T02:12:36.541Z,25.57
2024-04-26T02:13:06.581Z,25.60
2024-04-26T02:13:36.616Z,25.61
2024-04-26T02:14:06.643Z,25.60
2024-04-26T02:14:36.712Z,25.63
2024-04-26T02:15:06.849Z,25.64
2024-04-26T02:15:36.826Z,25.63
2024-04-26T02:16:06.871Z,25.64
2024-04-26T02:16:37.013Z,25.68
2024-04-26T02:17:07.028Z,25.67
2024-04-26T02:17:37.099Z,25.64
2024-04-26T02:18:37.162Z,25.61
2024-04-26T02:19:07.137Z,25.58
2024-04-26T02:19:37.206Z,25.57
2024-04-26T02:20:07.271Z,25.56
2024-04-26T02:20:37.323Z,25.56
2024-04-26T02:21:07.461Z,25.57
2024-04-26T02:21:37.460Z,25.53
2024-04-26T02:22:07.535Z,25.54
2024-04-26T02:22:37.618Z,25.57
2024-04-26T02:23:07.699Z,25.54
2024-04-26T02:23:37.807Z,25.53
2024-04-26T02:24:07.961Z,25.54
2024-04-26T02:24:37.963Z,25.51
2024-04-26T02:25:08.007Z,25.49
2024-04-26T02:25:38.102Z,25.49
2024-04-26T02:26:08.201Z,25.47
2024-04-26T02:26:38.352Z,25.47
2024-04-26T02:27:08.346Z,25.44
2024-04-26T02:27:38.311Z,25.49
2024-04-26T02:28:08.387Z,25.43
2024-04-26T02:28:38.464Z,25.44
2024-04-26T02:29:08.542Z,25.44
2024-04-26T02:29:38.680Z,25.49
2024-04-26T02:30:08.870Z,25.46
2024-04-26T02:30:38.666Z,25.46
2024-04-26T02:31:08.750Z,25.46
2024-04-26T02:31:38.849Z,25.44
2024-04-26T02:32:08.934Z,25.43
2024-04-26T02:32:39.238Z,25.43
2024-04-26T02:33:09.148Z,25.41
2024-04-26T02:33:39.232Z,25.47
2024-04-26T02:34:09.277Z,25.46
2024-04-26T02:34:39.157Z,25.46
2024-04-26T02:35:09.234Z,25.47
2024-04-26T02:35:39.382Z,25.50
2024-04-26T02:36:09.398Z,25.51
2024-04-26T02:36:39.391Z,25.50
2024-04-26T02:37:09.472Z,25.56
2024-04-26T02:37:39.554Z,25.54
2024-04-26T02:38:09.632Z,25.53
2024-04-26T02:38:39.743Z,25.57
2024-04-26T02:39:09.888Z,25.60
2024-04-26T02:39:39.781Z,25.60
2024-04-26T02:40:09.870Z,25.63
2024-04-26T02:40:39.955Z,25.64
2024-04-26T02:41:10.033Z,25.66
2024-04-26T02:41:40.167Z,25.63
2024-04-26T02:42:10.194Z,25.66
2024-04-26T02:42:40.145Z,25.68
2024-04-26T02:43:10.226Z,25.70
2024-04-26T02:43:40.304Z,25.73
2024-04-26T02:44:10.388Z,25.71
2024-04-26T02:44:40.522Z,25.71
2024-04-26T02:45:10.529Z,25.74
2024-04-26T02:46:10.546Z,25.67
2024-04-26T02:46:40.679Z,25.67
2024-04-26T02:47:10.655Z,25.67
2024-04-26T02:47:40.813Z,25.68
2024-04-26T02:48:10.908Z,25.67
2024-04-26T02:48:41.245Z,25.67
2024-04-26T02:49:10.915Z,25.70
2024-04-26T02:49:41.030Z,25.71
2024-04-26T02:50:10.984Z,25.70
2024-04-26T02:50:41.104Z,25.67
2024-04-26T02:51:11.242Z,25.67
2024-04-26T02:51:41.209Z,25.70
2024-04-26T02:52:11.286Z,25.70
2024-04-26T02:52:41.363Z,25.68
2024-04-26T02:53:11.450Z,25.70
2024-04-26T02:53:41.623Z,25.67
2024-04-26T02:54:11.702Z,25.64
2024-04-26T02:54:41.676Z,25.66
2024-04-26T02:55:11.743Z,25.64
2024-04-26T02:55:41.832Z,25.64
2024-04-26T02:56:11.924Z,25.64
2024-04-26T02:56:42.028Z,25.64
2024-04-26T02:57:12.112Z,25.64
2024-04-26T02:57:42.111Z,25.66
2024-04-26T02:58:12.196Z,25.66
2024-04-26T02:58:42.300Z,25.64
2024-04-26T02:59:12.372Z,25.67
2024-04-26T02:59:42.485Z,25.67
2024-04-26T03:00:12.704Z,25.67
2024-04-26T03:00:42.688Z,25.66
2024-04-26T03:01:12.752Z,25.70
2024-04-26T03:01:42.842Z,25.73
2024-04-26T03:02:12.882Z,25.75
2024-04-26T03:02:42.893Z,25.74
2024-04-26T03:03:13.094Z,25.71
2024-04-26T03:03:43.153Z,25.71
2024-04-26T03:04:13.133Z,25.75
2024-04-26T03:04:43.098Z,25.73
2024-04-26T03:05:13.174Z,25.73
2024-04-26T03:05:43.317Z,25.75
2024-04-26T03:06:13.332Z,25.73
2024-04-26T03:06:43.367Z,25.67
2024-04-26T03:07:13.412Z,25.71
2024-04-26T03:07:43.476Z,25.70
2024-04-26T03:08:13.507Z,25.68
2024-04-26T03:08:43.676Z,25.70
2024-04-26T03:09:13.650Z,25.66
2024-04-26T03:09:43.694Z,25.70
2024-04-26T03:10:13.734Z,25.68
2024-04-26T03:10:46.424Z,25.67
2024-04-26T03:11:14.182Z,25.68
2024-04-26T03:11:44.093Z,25.68
2024-04-26T03:12:14.222Z,25.67
2024-04-26T03:12:44.131Z,25.64
2024-04-26T03:13:14.159Z,25.63
2024-04-26T03:13:44.215Z,25.63
2024-04-26T03:14:14.258Z,25.61
2024-04-26T03:14:44.300Z,25.58
2024-04-26T03:15:14.392Z,25.58
2024-04-26T03:15:44.418Z,25.57
2024-04-26T03:16:14.483Z,25.61
2024-04-26T03:16:44.673Z,25.58
2024-04-26T03:17:14.764Z,25.57
2024-04-26T03:17:44.840Z,25.57
2024-04-26T03:18:14.904Z,25.58
2024-04-26T03:18:44.774Z,25.57
2024-04-26T03:19:15.078Z,25.57
2024-04-26T03:19:44.789Z,25.51
2024-04-26T03:20:14.909Z,25.51
2024-04-26T03:20:45.037Z,25.47
2024-04-26T03:21:15.096Z,25.47
2024-04-26T03:21:45.104Z,25.46
2024-04-26T03:22:15.207Z,25.49
2024-04-26T03:22:45.290Z,25.47
2024-04-26T03:23:15.363Z,25.46
2024-04-26T03:23:45.479Z,25.47
2024-04-26T03:24:15.469Z,25.46
2024-04-26T03:24:45.429Z,25.43
2024-04-26T03:25:15.517Z,25.41
2024-04-26T03:25:45.603Z,25.41
2024-04-26T03:26:15.673Z,25.47
2024-04-26T03:26:45.818Z,25.47
2024-04-26T03:27:15.854Z,25.46
2024-04-26T03:27:45.820Z,25.44
2024-04-26T03:28:15.894Z,25.46
2024-04-26T03:28:45.988Z,25.41
2024-04-26T03:29:16.066Z,25.43
2024-04-26T03:29:46.223Z,25.39
2024-04-26T03:30:16.293Z,25.39
2024-04-26T03:30:46.263Z,25.40
2024-04-26T03:31:16.398Z,25.41
2024-04-26T03:31:46.395Z,25.41
2024-04-26T03:32:16.403Z,25.43
2024-04-26T03:32:46.535Z,25.37
2024-04-26T03:33:16.599Z,25.40
2024-04-26T03:33:46.693Z,25.41
2024-04-26T03:34:16.687Z,25.50
2024-04-26T03:34:46.761Z,25.47
2024-04-26T03:35:16.832Z,25.46
2024-04-26T03:35:47.013Z,25.49
2024-04-26T03:36:17.488Z,25.54
2024-04-26T03:36:47.049Z,25.57
2024-04-26T03:37:17.106Z,25.54
2024-04-26T03:37:47.176Z,25.53
2024-04-26T03:38:17.270Z,25.56
2024-04-26T03:38:47.371Z,25.54
2024-04-26T03:39:17.463Z,25.58
2024-04-26T03:39:47.434Z,25.57
2024-04-26T03:40:17.513Z,25.57
2024-04-26T03:40:47.613Z,25.61
2024-04-26T03:41:17.705Z,25.60
2024-04-26T03:41:47.837Z,25.60
2024-04-26T03:42:17.848Z,25.58
2024-04-26T03:42:47.856Z,25.61
2024-04-26T03:43:17.969Z,25.61
2024-04-26T03:43:48.035Z,25.60
2024-04-26T03:44:18.131Z,25.58
2024-04-26T03:44:48.217Z,25.57
2024-04-26T03:45:18.356Z,25.58
2024-04-26T03:45:48.311Z,25.60
2024-04-26T03:46:18.396Z,25.57
2024-04-26T03:46:48.472Z,25.54
2024-04-26T03:47:18.639Z,25.53
2024-04-26T03:47:48.770Z,25.56
2024-04-26T03:48:18.883Z,25.53
2024-04-26T03:48:48.864Z,25.57
2024-04-26T03:49:19.154Z,25.56
2024-04-26T03:49:49.003Z,25.51
2024-04-26T03:50:18.884Z,25.54
2024-04-26T03:50:49.074Z,25.54
2024-04-26T03:51:19.099Z,25.54
2024-04-26T03:51:49.076Z,25.51
2024-04-26T03:52:19.175Z,25.50
2024-04-26T03:52:49.233Z,25.51
2024-04-26T03:53:19.331Z,25.49
2024-04-26T03:53:49.442Z,25.49
2024-04-26T03:54:19.516Z,25.47
2024-04-26T03:54:49.491Z,25.49
2024-04-26T03:55:19.582Z,25.44
2024-04-26T03:55:49.655Z,25.47
2024-04-26T03:56:19.746Z,25.49
2024-04-26T03:56:49.821Z,25.50
2024-04-26T03:57:19.833Z,25.50
2024-04-26T03:57:49.832Z,25.51
2024-04-26T03:58:19.889Z,25.49
2024-04-26T03:58:49.962Z,25.46
2024-04-26T03:59:20.042Z,25.43
2024-04-26T03:59:50.233Z,25.41
2024-04-26T04:00:20.364Z,25.44
2024-04-26T04:00:51.984Z,25.43
2024-04-26T04:01:20.388Z,25.44
2024-04-26T04:01:50.508Z,25.44
2024-04-26T04:02:20.605Z,25.49
2024-04-26T04:02:50.640Z,25.41
2024-04-26T04:03:20.792Z,25.46
2024-04-26T04:03:50.817Z,25.41
2024-04-26T04:04:21.035Z,25.39
2024-04-26T04:04:51.021Z,25.39
2024-04-26T04:05:20.919Z,25.33
2024-04-26T04:05:51.153Z,25.39
2024-04-26T04:06:21.193Z,25.34
2024-04-26T04:06:51.154Z,25.29
2024-04-26T04:07:21.236Z,25.34
2024-04-26T04:07:51.321Z,25.33
2024-04-26T04:08:21.395Z,25.32
2024-04-26T04:08:51.515Z,25.36
2024-04-26T04:09:21.538Z,25.32
2024-04-26T04:09:51.531Z,25.25
2024-04-26T04:10:21.603Z,25.23
2024-04-26T04:10:51.704Z,25.23
2024-04-26T04:11:21.887Z,25.32
2024-04-26T04:11:51.904Z,25.36
2024-04-26T04:12:21.984Z,25.33
2024-04-26T04:12:52.056Z,25.37
2024-04-26T04:13:22.085Z,25.41
2024-04-26T04:13:52.160Z,25.47
2024-04-26T04:14:22.245Z,25.49
2024-04-26T04:14:52.419Z,25.49
2024-04-26T04:15:22.360Z,25.50
2024-04-26T04:15:52.437Z,25.56
2024-04-26T04:16:22.555Z,25.54
2024-04-26T04:16:52.579Z,25.61
2024-04-26T04:17:22.640Z,25.64
2024-04-26T04:17:52.740Z,25.57
2024-04-26T04:18:22.847Z,25.58
2024-04-26T04:18:52.817Z,25.56
2024-04-26T04:19:22.882Z,25.57
2024-04-26T04:19:52.829Z,25.61
2024-04-26T04:20:22.897Z,25.61
2024-04-26T04:20:53.016Z,25.60
2024-04-26T04:21:22.937Z,25.53
2024-04-26T04:21:52.941Z,25.51
2024-04-26T04:22:23.051Z,25.51
2024-04-26T04:22:53.056Z,25.47
2024-04-26T04:23:23.204Z,25.47
2024-04-26T04:23:53.148Z,25.44
2024-04-26T04:24:23.212Z,25.49
2024-04-26T04:24:53.207Z,25.50
2024-04-26T04:25:23.317Z,25.50
2024-04-26T04:25:53.350Z,25.51
2024-04-26T04:26:23.368Z,25.41
2024-04-26T04:26:53.453Z,25.47
2024-04-26T04:27:23.535Z,25.44
2024-04-26T04:27:53.531Z,25.41
2024-04-26T04:28:23.563Z,25.39
2024-04-26T04:28:53.545Z,25.40
2024-04-26T04:29:23.601Z,25.41
2024-04-26T04:29:53.638Z,25.44
2024-04-26T04:30:23.632Z,25.49
2024-04-26T04:30:53.648Z,25.46
2024-04-26T04:31:23.657Z,25.50
2024-04-26T04:31:53.659Z,25.49
2024-04-26T04:32:23.763Z,25.51
2024-04-26T04:32:53.860Z,25.57
2024-04-26T04:33:23.968Z,25.53
2024-04-26T04:33:53.938Z,25.57
2024-04-26T04:34:24.117Z,25.56
2024-04-26T04:34:54.075Z,25.50
2024-04-26T04:35:24.094Z,25.53
2024-04-26T04:35:54.054Z,25.50
2024-04-26T04:36:24.074Z,25.44
2024-04-26T04:36:54.097Z,25.51
2024-04-26T04:37:24.108Z,25.50
2024-04-26T04:37:54.123Z,25.54
2024-04-26T04:38:24.210Z,25.56
2024-04-26T04:38:54.279Z,25.56
2024-04-26T04:39:24.265Z,25.50
2024-04-26T04:39:54.277Z,25.53
2024-04-26T04:40:24.355Z,25.54
2024-04-26T04:40:54.383Z,25.61
2024-04-26T04:41:24.472Z,25.60
2024-04-26T04:41:54.516Z,25.60
2024-04-26T04:42:24.502Z,25.67
2024-04-26T04:42:54.505Z,25.63
2024-04-26T04:43:24.516Z,25.64
2024-04-26T04:43:54.505Z,25.63
2024-04-26T04:44:24.576Z,25.61
2024-04-26T04:44:54.618Z,25.71
2024-04-26T04:45:24.619Z,25.74
2024-04-26T04:45:54.629Z,25.73
2024-04-26T04:46:24.630Z,25.74
2024-04-26T04:46:54.702Z,25.73
2024-04-26T04:47:24.881Z,25.75
2024-04-26T04:47:54.952Z,25.75
2024-04-26T04:48:24.944Z,25.75
2024-04-26T04:48:55.221Z,25.80
2024-04-26T04:49:25.025Z,25.81
2024-04-26T04:49:54.936Z,25.77
2024-04-26T04:50:25.006Z,25.74
2024-04-26T04:50:55.176Z,25.80
2024-04-26T04:51:25.046Z,25.73
2024-04-26T04:51:55.054Z,25.74
2024-04-26T04:52:25.082Z,25.75
2024-04-26T04:52:55.082Z,25.77
2024-04-26T04:53:25.098Z,25.77
2024-04-26T04:53:55.158Z,25.68
2024-04-26T04:54:25.249Z,25.68
2024-04-26T04:54:55.180Z,25.71
2024-04-26T04:55:25.206Z,25.74
2024-04-26T04:55:55.190Z,25.71
2024-04-26T04:56:25.240Z,25.77
2024-04-26T04:56:55.334Z,25.75
2024-04-26T04:57:25.350Z,25.75
2024-04-26T04:57:55.356Z,25.77
2024-04-26T04:58:25.789Z,25.78
2024-04-26T04:58:55.467Z,25.80
2024-04-26T04:59:55.631Z,25.77
2024-04-26T05:00:25.620Z,25.80
2024-04-26T05:00:55.699Z,25.80
2024-04-26T05:01:25.714Z,25.67
2024-04-26T05:01:55.647Z,25.77
2024-04-26T05:02:25.805Z,25.78
2024-04-26T05:02:55.782Z,25.80
2024-04-26T05:03:25.898Z,25.80
2024-04-26T05:03:56.094Z,25.78
2024-04-26T05:04:25.880Z,25.75
2024-04-26T05:04:55.927Z,25.71
2024-04-26T05:05:26.012Z,25.73
2024-04-26T05:05:56.059Z,25.74
2024-04-26T05:06:26.148Z,25.74
2024-04-26T05:06:56.256Z,25.75
2024-04-26T05:07:28.753Z,25.75
2024-04-26T05:07:56.460Z,25.74
2024-04-26T05:08:26.635Z,25.74
2024-04-26T05:08:56.634Z,25.75
2024-04-26T05:09:26.640Z,25.80
2024-04-26T05:09:56.715Z,25.84
2024-04-26T05:10:26.800Z,25.85
2024-04-26T05:10:56.890Z,25.87
2024-04-26T05:11:27.061Z,25.89
2024-04-26T05:11:57.160Z,25.92
2024-04-26T05:12:27.226Z,25.91
2024-04-26T05:12:57.256Z,25.91
2024-04-26T05:13:27.332Z,25.92
2024-04-26T05:13:57.415Z,25.88
2024-04-26T05:14:27.523Z,25.89
2024-04-26T05:14:57.665Z,25.88
2024-04-26T05:15:27.686Z,25.88
2024-04-26T05:15:57.767Z,25.87
2024-04-26T05:16:27.788Z,25.87
2024-04-26T05:16:57.789Z,25.88
2024-04-26T05:17:27.967Z,25.89
2024-04-26T05:17:58.009Z,25.87
2024-04-26T05:18:28.284Z,25.84
2024-04-26T05:18:58.775Z,25.83
2024-04-26T05:19:28.149Z,25.81
2024-04-26T05:20:28.299Z,25.74
2024-04-26T05:20:58.377Z,25.71
2024-04-26T05:21:28.380Z,25.73
2024-04-26T05:21:58.377Z,25.71
2024-04-26T05:22:28.383Z,25.67
2024-04-26T05:22:58.400Z,25.66
2024-04-26T05:23:28.474Z,25.68
2024-04-26T05:23:58.536Z,25.67
2024-04-26T05:24:30.879Z,25.68
2024-04-26T05:24:58.625Z,25.68
2024-04-26T05:25:28.633Z,25.74
2024-04-26T05:25:58.634Z,25.74
2024-04-26T05:26:28.687Z,25.74
2024-04-26T05:26:58.800Z,25.78
2024-04-26T05:27:28.814Z,25.78
2024-04-26T05:27:58.827Z,25.77
2024-04-26T05:28:28.829Z,25.83
2024-04-26T05:28:58.832Z,25.81
2024-04-26T05:29:58.880Z,25.84
2024-04-26T05:30:28.894Z,25.85
2024-04-26T05:30:58.922Z,25.85
2024-04-26T05:31:28.940Z,25.92
2024-04-26T05:31:58.974Z,25.85
2024-04-26T05:32:29.106Z,25.88
2024-04-26T05:32:59.142Z,25.87
2024-04-26T05:33:29.298Z,25.87
2024-04-26T05:33:59.272Z,25.84
2024-04-26T05:34:29.319Z,25.85
2024-04-26T05:34:59.278Z,25.77
2024-04-26T05:35:29.289Z,25.75
2024-04-26T05:35:59.544Z,25.78
2024-04-26T05:36:29.428Z,25.75
2024-04-26T05:37:29.515Z,25.78
2024-04-26T05:37:59.524Z,25.81
2024-04-26T05:38:29.570Z,25.85
2024-04-26T05:38:59.586Z,25.85
2024-04-26T05:39:29.594Z,25.91
2024-04-26T05:39:59.661Z,25.91
2024-04-26T05:40:29.651Z,25.91
2024-04-26T05:40:59.660Z,25.94
2024-04-26T05:41:29.784Z,25.94
2024-04-26T05:41:59.814Z,25.99
2024-04-26T05:42:29.770Z,26.05
2024-04-26T05:42:59.772Z,26.05
2024-04-26T05:43:32.573Z,26.03
2024-04-26T05:43:59.873Z,26.03
2024-04-26T05:44:29.913Z,26.08
2024-04-26T05:44:59.968Z,26.08
2024-04-26T05:45:30.000Z,26.11
2024-04-26T05:46:00.001Z,26.06
2024-04-26T05:46:30.005Z,26.19
2024-04-26T05:47:00.086Z,26.16
2024-04-26T05:47:30.377Z,26.15
2024-04-26T05:48:00.312Z,26.15
2024-04-26T05:48:30.255Z,26.20
2024-04-26T05:49:00.383Z,26.19
2024-04-26T05:49:30.525Z,26.25
2024-04-26T05:50:00.422Z,26.22
2024-04-26T05:50:30.514Z,26.20
2024-04-26T05:51:00.710Z,26.23
2024-04-26T05:51:30.555Z,26.22
2024-04-26T05:52:00.582Z,26.16
2024-04-26T05:52:30.565Z,26.13
2024-04-26T05:53:00.578Z,26.12
2024-04-26T05:53:30.596Z,26.08
2024-04-26T05:54:00.823Z,26.06
2024-04-26T05:54:30.667Z,26.08
2024-04-26T05:55:00.666Z,26.08
2024-04-26T05:55:30.682Z,26.09
2024-04-26T05:56:00.671Z,26.05
2024-04-26T05:56:30.712Z,26.06
2024-04-26T05:57:00.796Z,26.06
2024-04-26T05:57:30.806Z,26.08
2024-04-26T05:58:00.798Z,26.06
2024-04-26T05:58:30.821Z,26.06
2024-04-26T05:59:00.858Z,26.09
2024-04-26T05:59:30.989Z,26.08
2024-04-26T06:00:01.011Z,26.12
2024-04-26T06:00:31.110Z,26.12
2024-04-26T06:01:01.050Z,26.20
2024-04-26T06:01:31.036Z,26.18
2024-04-26T06:02:01.042Z,26.13
2024-04-26T06:02:31.168Z,26.13
2024-04-26T06:03:01.191Z,26.18
2024-04-26T06:03:31.244Z,26.15
2024-04-26T06:04:01.365Z,26.15
2024-04-26T06:04:31.287Z,26.13
2024-04-26T06:05:01.368Z,26.16
2024-04-26T06:05:31.430Z,26.13
2024-04-26T06:06:01.450Z,26.09
2024-04-26T06:06:31.511Z,26.05
2024-04-26T06:07:01.621Z,26.08
2024-04-26T06:07:31.680Z,26.11
2024-04-26T06:08:01.758Z,26.11
2024-04-26T06:08:31.909Z,26.12
2024-04-26T06:09:01.938Z,26.08
2024-04-26T06:09:31.896Z,26.11
2024-04-26T06:10:01.972Z,26.09
2024-04-26T06:10:32.055Z,26.11
2024-04-26T06:11:02.202Z,26.13
2024-04-26T06:11:32.215Z,26.06
2024-04-26T06:12:02.222Z,26.06
2024-04-26T06:12:32.350Z,26.01
2024-04-26T06:13:09.441Z,26.02
2024-04-26T06:13:33.521Z,25.99
2024-04-26T06:14:02.423Z,26.02
2024-04-26T06:14:32.539Z,25.99
2024-04-26T06:15:02.591Z,25.95
2024-04-26T06:15:32.549Z,25.98
2024-04-26T06:16:02.649Z,25.94
2024-04-26T06:16:32.648Z,25.95
2024-04-26T06:17:02.663Z,25.89
2024-04-26T06:17:32.846Z,25.87
2024-04-26T06:18:02.818Z,25.84
2024-04-26T06:18:32.942Z,25.88
2024-04-26T06:19:02.959Z,25.89
2024-04-26T06:19:33.025Z,25.91
2024-04-26T06:20:02.923Z,25.88
2024-04-26T06:21:03.111Z,25.92
2024-04-26T06:21:33.071Z,25.96
2024-04-26T06:22:03.104Z,25.94
2024-04-26T06:22:33.145Z,25.98
2024-04-26T06:23:03.135Z,25.96
2024-04-26T06:24:03.403Z,25.95
2024-04-26T06:24:33.348Z,25.99
2024-04-26T06:25:03.351Z,26.02
2024-04-26T06:25:33.372Z,26.03
2024-04-26T06:26:03.362Z,26.02
2024-04-26T06:26:33.383Z,26.03
2024-04-26T06:27:03.522Z,26.05
2024-04-26T06:27:33.493Z,26.08
2024-04-26T06:28:03.476Z,26.05
2024-04-26T06:28:33.480Z,26.03
2024-04-26T06:29:03.481Z,26.09
2024-04-26T06:29:33.510Z,26.12
2024-04-26T06:30:03.555Z,26.11
2024-04-26T06:30:33.539Z,26.15
2024-04-26T06:31:03.550Z,26.12
2024-04-26T06:31:33.576Z,26.11